createdAt,value
2017-10-13T00:00:52.506Z,57.60
2017-10-13T00:03:19.977Z,57.60
2017-10-13T00:05:47.433Z,57.60
2017-10-13T00:08:14.914Z,57.70
2017-10-13T00:10:43.146Z,57.80
2017-10-13T00:13:10.630Z,57.70
2017-10-13T00:15:38.084Z,57.70
2017-10-13T00:18:05.543Z,57.70
2017-10-13T00:20:33.013Z,57.80
2017-10-13T00:23:01.250Z,57.80
2017-10-13T00:25:28.707Z,57.80
2017-10-13T00:27:56.150Z,57.80
2017-10-13T00:30:23.613Z,57.80
2017-10-13T00:32:51.847Z,58.10
2017-10-13T00:35:19.302Z,57.90
2017-10-13T00:37:46.746Z,58.20
2017-10-13T00:40:14.226Z,58.00
2017-10-13T00:42:41.674Z,58.00
2017-10-13T00:45:09.143Z,57.90
2017-10-13T00:47:36.605Z,58.10
2017-10-13T00:50:04.105Z,58.10
2017-10-13T00:52:31.586Z,58.00
2017-10-13T00:54:59.039Z,58.10
2017-10-13T00:57:26.507Z,58.10
2017-10-13T00:59:54.009Z,58.10
2017-10-13T01:02:22.226Z,58.20
2017-10-13T01:04:49.683Z,58.20
2017-10-13T01:07:17.141Z,58.30
2017-10-13T01:09:44.605Z,58.30
2017-10-13T01:12:12.055Z,58.20
2017-10-13T01:14:39.510Z,58.20
2017-10-13T01:17:06.969Z,58.30
2017-10-13T01:19:34.418Z,58.40
2017-10-13T01:22:01.882Z,58.30
2017-10-13T01:24:29.338Z,58.30
2017-10-13T01:26:56.797Z,58.20
2017-10-13T01:29:24.253Z,58.30
2017-10-13T01:31:51.710Z,58.40
2017-10-13T01:34:19.167Z,58.40
2017-10-13T01:36:47.394Z,58.40
2017-10-13T01:39:14.850Z,58.30
2017-10-13T01:41:42.323Z,58.40
2017-10-13T01:44:09.763Z,58.60
2017-10-13T01:46:37.226Z,58.50
2017-10-13T01:49:04.685Z,58.60
2017-10-13T01:51:32.145Z,58.50
2017-10-13T01:53:59.742Z,58.40
2017-10-13T01:56:27.206Z,58.40
2017-10-13T01:58:54.659Z,58.50
2017-10-13T02:01:22.114Z,58.50
2017-10-13T02:03:49.575Z,58.50
2017-10-13T02:06:17.030Z,58.50
2017-10-13T02:08:44.486Z,58.60
2017-10-13T02:11:12.700Z,58.60
2017-10-13T02:13:40.158Z,58.60
2017-10-13T02:16:07.614Z,58.60
2017-10-13T02:18:35.076Z,58.60
2017-10-13T02:21:02.530Z,58.50
2017-10-13T02:23:30.007Z,58.50
2017-10-13T02:25:57.461Z,58.60
2017-10-13T02:28:24.926Z,58.60
2017-10-13T02:30:52.374Z,58.60
2017-10-13T02:33:19.829Z,58.60
2017-10-13T02:35:47.291Z,58.80
2017-10-13T02:38:14.751Z,58.60
2017-10-13T02:40:42.202Z,58.70
2017-10-13T02:43:09.663Z,58.70
2017-10-13T02:45:37.117Z,58.80
2017-10-13T02:48:04.582Z,58.80
2017-10-13T02:50:32.038Z,58.70
2017-10-13T02:52:59.491Z,58.60
2017-10-13T02:55:27.106Z,58.80
2017-10-13T02:57:54.557Z,58.80
2017-10-13T03:00:22.013Z,58.80
2017-10-13T03:02:49.465Z,58.80
2017-10-13T03:05:16.946Z,58.80
2017-10-13T03:07:45.157Z,58.90
2017-10-13T03:10:12.611Z,58.90
2017-10-13T03:12:40.070Z,58.80
2017-10-13T03:15:07.527Z,58.80
2017-10-13T03:17:34.988Z,58.90
2017-10-13T03:20:02.462Z,58.90
2017-10-13T03:22:29.916Z,58.90
2017-10-13T03:24:57.370Z,59.00
2017-10-13T03:27:24.827Z,59.10
2017-10-13T03:29:52.286Z,59.00
2017-10-13T03:32:19.733Z,59.00
2017-10-13T03:34:47.205Z,59.00
2017-10-13T03:37:14.658Z,59.00
2017-10-13T03:39:42.124Z,58.90
2017-10-13T03:42:09.648Z,58.90
2017-10-13T03:44:37.844Z,58.80
2017-10-13T03:47:05.298Z,58.80
2017-10-13T03:49:32.789Z,58.90
2017-10-13T03:52:00.243Z,58.90
2017-10-13T03:54:27.715Z,59.00
2017-10-13T03:56:55.182Z,58.90
2017-10-13T03:59:23.398Z,59.00
2017-10-13T04:01:50.857Z,58.90
2017-10-13T04:04:18.315Z,58.90
2017-10-13T04:06:45.769Z,59.00
2017-10-13T04:09:13.222Z,59.00
2017-10-13T04:11:40.685Z,59.10
2017-10-13T04:14:08.151Z,59.00
2017-10-13T04:16:35.606Z,59.00
2017-10-13T04:19:03.053Z,59.20
2017-10-13T04:21:30.514Z,59.20
2017-10-13T04:23:57.954Z,59.20
2017-10-13T04:26:25.425Z,59.10
2017-10-13T04:28:52.869Z,59.20
2017-10-13T04:31:20.326Z,59.10
2017-10-13T04:33:47.782Z,59.10
2017-10-13T04:36:15.239Z,59.10
2017-10-13T04:38:43.450Z,59.20
2017-10-13T04:41:10.894Z,59.20
2017-10-13T04:43:38.349Z,59.20
2017-10-13T04:46:05.810Z,59.20
2017-10-13T04:48:33.267Z,59.20
2017-10-13T04:51:00.709Z,59.40
2017-10-13T04:53:28.177Z,59.30
2017-10-13T04:55:55.694Z,59.50
2017-10-13T04:58:23.918Z,59.40
2017-10-13T05:00:51.362Z,59.40
2017-10-13T05:03:18.823Z,59.50
2017-10-13T05:05:46.274Z,59.40
2017-10-13T05:08:13.729Z,59.40
2017-10-13T05:13:15.154Z,59.50
2017-10-13T05:15:42.602Z,59.40
2017-10-13T05:18:10.112Z,59.40
2017-10-13T05:20:37.569Z,59.50
2017-10-13T05:23:05.031Z,59.60
2017-10-13T05:25:32.501Z,59.60
2017-10-13T05:27:59.984Z,59.50
2017-10-13T05:30:27.454Z,59.50
2017-10-13T05:32:55.730Z,59.40
2017-10-13T05:35:23.186Z,59.40
2017-10-13T05:37:50.654Z,59.30
2017-10-13T05:40:18.881Z,59.40
2017-10-13T05:42:46.326Z,59.40
2017-10-13T05:45:13.783Z,59.40
2017-10-13T05:47:41.226Z,59.30
2017-10-13T05:50:08.699Z,59.40
2017-10-13T05:52:36.138Z,59.40
2017-10-13T05:55:03.603Z,60.00
2017-10-13T05:57:31.047Z,59.40
2017-10-13T05:59:58.560Z,59.50
2017-10-13T06:02:26.001Z,59.50
2017-10-13T06:04:53.469Z,59.40
2017-10-13T06:07:20.935Z,59.40
2017-10-13T06:09:48.401Z,59.30
2017-10-13T06:12:15.850Z,59.50
2017-10-13T06:14:43.317Z,59.50
2017-10-13T06:17:10.770Z,59.50
2017-10-13T06:19:38.242Z,59.40
2017-10-13T06:22:06.456Z,59.40
2017-10-13T06:24:33.902Z,59.40
2017-10-13T06:27:01.364Z,59.50
2017-10-13T06:29:28.805Z,59.50
2017-10-13T06:31:57.053Z,59.50
2017-10-13T06:34:24.538Z,59.50
2017-10-13T06:36:52.754Z,59.40
2017-10-13T06:39:20.204Z,59.40
2017-10-13T06:41:47.661Z,59.50
2017-10-13T06:44:15.874Z,59.40
2017-10-13T06:46:43.342Z,59.50
2017-10-13T06:49:11.562Z,59.40
2017-10-13T06:51:39.025Z,59.40
2017-10-13T06:54:06.478Z,59.20
2017-10-13T06:56:34.023Z,59.30
2017-10-13T06:59:02.261Z,59.30
2017-10-13T07:01:29.727Z,59.30
2017-10-13T07:03:57.949Z,59.00
2017-10-13T07:06:25.411Z,59.00
2017-10-13T07:08:52.857Z,59.20
2017-10-13T07:11:20.312Z,59.10
2017-10-13T07:13:47.754Z,59.00
2017-10-13T07:16:15.230Z,59.00
2017-10-13T07:18:42.683Z,59.10
2017-10-13T07:21:10.150Z,59.00
2017-10-13T07:23:37.637Z,58.90
2017-10-13T07:26:05.086Z,58.90
2017-10-13T07:28:32.546Z,58.80
2017-10-13T07:31:00.043Z,58.70
2017-10-13T07:33:31.719Z,58.50
2017-10-13T07:35:59.792Z,58.50
2017-10-13T07:38:28.079Z,58.70
2017-10-13T07:40:55.526Z,58.70
2017-10-13T07:43:22.979Z,58.70
2017-10-13T07:45:50.433Z,58.60
2017-10-13T07:48:18.654Z,58.40
2017-10-13T07:50:46.118Z,58.30
2017-10-13T07:53:13.564Z,58.30
2017-10-13T07:55:41.051Z,58.20
2017-10-13T07:58:08.506Z,58.00
2017-10-13T08:00:35.961Z,58.20
2017-10-13T08:03:03.410Z,58.20
2017-10-13T08:05:30.866Z,58.10
2017-10-13T08:07:58.351Z,58.10
2017-10-13T08:10:26.678Z,57.90
2017-10-13T08:12:54.121Z,57.90
2017-10-13T08:15:21.574Z,58.00
2017-10-13T08:17:49.036Z,58.10
2017-10-13T08:20:17.261Z,57.80
2017-10-13T08:22:44.709Z,57.70
2017-10-13T08:25:12.158Z,57.60
2017-10-13T08:27:39.605Z,57.50
2017-10-13T08:30:07.831Z,57.30
2017-10-13T08:32:35.314Z,57.20
2017-10-13T08:35:03.543Z,57.10
2017-10-13T08:37:31.002Z,57.00
2017-10-13T08:39:59.234Z,57.00
2017-10-13T08:42:26.685Z,56.90
2017-10-13T08:44:54.153Z,56.80
2017-10-13T08:47:21.594Z,56.90
2017-10-13T08:49:49.810Z,56.60
2017-10-13T08:52:17.284Z,56.70
2017-10-13T08:54:45.517Z,56.50
2017-10-13T08:57:13.722Z,56.40
2017-10-13T08:59:41.181Z,56.20
2017-10-13T09:02:08.632Z,56.10
2017-10-13T09:04:36.112Z,55.90
2017-10-13T09:07:04.342Z,55.20
2017-10-13T09:09:31.782Z,55.20
2017-10-13T09:11:59.250Z,54.70
2017-10-13T09:14:26.689Z,54.00
2017-10-13T09:16:54.911Z,52.90
2017-10-13T09:19:22.373Z,52.90
2017-10-13T09:21:52.751Z,52.50
2017-10-13T09:24:20.210Z,52.10
2017-10-13T09:26:47.682Z,52.00
2017-10-13T09:29:15.138Z,52.00
2017-10-13T09:31:42.593Z,51.80
2017-10-13T09:34:10.046Z,51.60
2017-10-13T09:36:37.521Z,51.40
2017-10-13T09:39:05.001Z,51.00
2017-10-13T09:41:33.235Z,50.70
2017-10-13T09:44:00.700Z,50.40
2017-10-13T09:46:28.159Z,50.20
2017-10-13T09:48:55.630Z,49.80
2017-10-13T09:51:23.886Z,49.10
2017-10-13T09:53:51.347Z,49.00
2017-10-13T09:56:18.801Z,48.80
2017-10-13T09:58:46.273Z,48.50
2017-10-13T10:01:13.723Z,48.40
2017-10-13T10:03:41.942Z,48.40
2017-10-13T10:06:10.168Z,49.00
2017-10-13T10:08:37.630Z,49.00
2017-10-13T10:11:05.086Z,49.20
2017-10-13T10:13:32.554Z,49.00
2017-10-13T10:16:00.792Z,49.10
2017-10-13T10:18:28.253Z,49.00
2017-10-13T10:20:55.706Z,49.40
2017-10-13T10:23:23.169Z,49.60
2017-10-13T10:25:50.625Z,50.00
2017-10-13T10:28:18.852Z,50.40
2017-10-13T10:30:46.304Z,50.40
2017-10-13T10:33:13.749Z,50.40
2017-10-13T10:35:41.217Z,50.50
2017-10-13T10:38:08.663Z,50.50
2017-10-13T10:40:36.131Z,50.40
2017-10-13T10:43:03.579Z,49.80
2017-10-13T10:45:31.047Z,48.90
2017-10-13T10:47:58.504Z,48.00
2017-10-13T10:50:25.965Z,47.50
2017-10-13T10:52:53.421Z,47.10
2017-10-13T10:55:20.874Z,46.60
2017-10-13T10:57:48.317Z,46.20
2017-10-13T11:00:15.791Z,45.80
2017-10-13T11:02:43.233Z,45.30
2017-10-13T11:05:11.473Z,44.40
2017-10-13T11:07:38.944Z,44.30
2017-10-13T11:10:06.409Z,43.70
2017-10-13T11:12:33.860Z,43.00
2017-10-13T11:15:01.318Z,42.50
2017-10-13T11:17:28.792Z,42.30
2017-10-13T11:19:56.233Z,42.30
2017-10-13T11:22:23.694Z,42.20
2017-10-13T11:24:51.134Z,42.40
2017-10-13T11:27:18.624Z,42.50
2017-10-13T11:29:46.070Z,42.50
2017-10-13T11:32:13.525Z,42.30
2017-10-13T11:34:40.986Z,42.10
2017-10-13T11:37:08.515Z,42.10
2017-10-13T11:39:35.976Z,42.20
2017-10-13T11:42:03.434Z,42.30
2017-10-13T11:44:30.891Z,42.40
2017-10-13T11:46:58.342Z,42.50
2017-10-13T11:49:25.795Z,42.70
2017-10-13T11:51:54.014Z,44.00
2017-10-13T11:54:21.471Z,44.00
2017-10-13T11:56:48.927Z,44.50
2017-10-13T11:59:16.410Z,44.40
2017-10-13T12:01:43.865Z,43.70
2017-10-13T12:04:12.114Z,42.30
2017-10-13T12:06:39.566Z,42.30
2017-10-13T12:09:07.034Z,41.40
2017-10-13T12:11:34.495Z,42.00
2017-10-13T12:14:01.933Z,43.10
2017-10-13T12:16:29.390Z,44.10
2017-10-13T12:18:56.883Z,44.40
2017-10-13T12:21:24.346Z,44.40
2017-10-13T12:23:51.806Z,43.80
2017-10-13T12:26:19.252Z,43.80
2017-10-13T12:28:47.487Z,44.70
2017-10-13T12:31:14.955Z,44.60
2017-10-13T12:33:42.426Z,45.00
2017-10-13T12:36:09.871Z,45.00
2017-10-13T12:38:37.326Z,45.00
2017-10-13T12:41:04.795Z,43.50
2017-10-13T12:43:32.250Z,42.40
2017-10-13T12:45:59.776Z,42.10
2017-10-13T12:48:27.250Z,40.80
2017-10-13T12:50:54.723Z,40.10
2017-10-13T12:53:22.179Z,39.60
2017-10-13T12:55:49.643Z,39.10
2017-10-13T12:58:17.885Z,38.10
2017-10-13T13:00:45.334Z,38.10
2017-10-13T13:03:12.791Z,37.80
2017-10-13T13:05:40.247Z,37.60
2017-10-13T13:08:07.702Z,37.40
2017-10-13T13:10:35.161Z,36.90
2017-10-13T13:13:02.618Z,36.80
2017-10-13T13:15:30.082Z,37.20
2017-10-13T13:17:57.534Z,37.20
2017-10-13T13:20:25.068Z,37.20
2017-10-13T13:22:53.291Z,37.30
2017-10-13T13:25:20.774Z,37.30
2017-10-13T13:27:49.004Z,37.30
2017-10-13T13:30:16.458Z,37.30
2017-10-13T13:32:43.931Z,37.60
2017-10-13T13:35:11.390Z,37.90
2017-10-13T13:37:39.607Z,37.90
2017-10-13T13:40:07.063Z,37.80
2017-10-13T13:42:34.518Z,37.70
2017-10-13T13:45:02.033Z,38.00
2017-10-13T13:47:29.495Z,38.70
2017-10-13T13:49:56.958Z,40.10
2017-10-13T13:52:24.425Z,41.20
2017-10-13T13:54:51.874Z,42.20
2017-10-13T13:57:20.094Z,43.60
2017-10-13T13:59:47.545Z,43.60
2017-10-13T14:02:15.799Z,43.90
2017-10-13T14:04:43.277Z,43.80
2017-10-13T14:07:10.742Z,43.70
2017-10-13T14:09:38.977Z,43.60
2017-10-13T14:12:07.199Z,43.70
2017-10-13T14:14:34.659Z,43.70
2017-10-13T14:17:02.882Z,44.10
2017-10-13T14:19:30.350Z,44.10
2017-10-13T14:21:57.825Z,44.50
2017-10-13T14:24:25.295Z,45.20
2017-10-13T14:26:53.535Z,46.40
2017-10-13T14:29:20.994Z,46.40
2017-10-13T14:31:48.479Z,47.00
2017-10-13T14:34:15.946Z,47.50
2017-10-13T14:36:43.386Z,47.80
2017-10-13T14:39:10.850Z,48.10
2017-10-13T14:41:38.297Z,48.40
2017-10-13T14:44:06.573Z,49.00
2017-10-13T14:46:34.027Z,49.00
2017-10-13T14:49:02.283Z,49.50
2017-10-13T14:51:29.744Z,49.50
2017-10-13T14:53:57.997Z,50.00
2017-10-13T14:56:25.468Z,50.00
2017-10-13T14:58:52.930Z,50.30
2017-10-13T15:01:20.398Z,50.60
2017-10-13T15:03:47.869Z,50.70
2017-10-13T15:06:15.338Z,50.90
2017-10-13T15:08:42.783Z,51.10
2017-10-13T15:11:10.250Z,51.20
2017-10-13T15:13:37.708Z,51.40
2017-10-13T15:16:05.166Z,52.10
2017-10-13T15:18:32.615Z,51.50
2017-10-13T15:21:00.064Z,48.20
2017-10-13T15:23:27.539Z,48.90
2017-10-13T15:25:55.014Z,50.00
2017-10-13T15:28:28.187Z,51.20
2017-10-13T15:31:01.589Z,51.80
2017-10-13T15:36:32.730Z,51.10
2017-10-13T15:39:05.914Z,50.50
2017-10-13T15:41:39.002Z,50.30
2017-10-13T15:44:12.013Z,50.10
2017-10-13T15:46:45.166Z,49.90
2017-10-13T15:49:18.324Z,50.00
2017-10-13T15:51:52.116Z,50.00
2017-10-13T15:54:19.557Z,50.00
2017-10-13T15:56:47.060Z,50.20
2017-10-13T15:59:14.513Z,50.20
2017-10-13T16:01:42.734Z,50.40
2017-10-13T16:04:10.203Z,50.30
2017-10-13T16:06:37.702Z,50.50
2017-10-13T16:09:05.163Z,50.50
2017-10-13T16:11:32.610Z,50.70
2017-10-13T16:14:00.074Z,50.80
2017-10-13T16:16:27.547Z,50.80
2017-10-13T16:18:54.998Z,50.90
2017-10-13T16:21:22.467Z,51.00
2017-10-13T16:23:50.678Z,51.20
2017-10-13T16:26:18.133Z,51.20
2017-10-13T16:28:45.583Z,51.40
2017-10-13T16:31:13.038Z,51.40
2017-10-13T16:33:41.265Z,51.50
2017-10-13T16:36:08.756Z,51.50
2017-10-13T16:38:36.996Z,51.60
2017-10-13T16:41:04.456Z,51.60
2017-10-13T16:43:31.922Z,51.70
2017-10-13T16:45:59.367Z,51.80
2017-10-13T16:48:26.822Z,51.80
2017-10-13T16:50:55.048Z,52.00
2017-10-13T16:53:22.510Z,51.90
2017-10-13T16:55:49.971Z,52.10
2017-10-13T16:58:17.498Z,52.10
2017-10-13T17:00:44.967Z,52.20
2017-10-13T17:03:12.439Z,52.30
2017-10-13T17:05:39.882Z,52.30
2017-10-13T17:08:07.341Z,52.40
2017-10-13T17:10:34.822Z,52.50
2017-10-13T17:13:02.270Z,52.60
2017-10-13T17:15:29.722Z,52.60
2017-10-13T17:17:57.173Z,52.60
2017-10-13T17:20:24.630Z,52.60
2017-10-13T17:22:52.110Z,52.70
2017-10-13T17:25:19.572Z,53.40
2017-10-13T17:27:47.018Z,52.80
2017-10-13T17:30:14.497Z,53.40
2017-10-13T17:32:41.950Z,52.90
2017-10-13T17:35:10.181Z,53.00
2017-10-13T17:37:37.647Z,53.00
2017-10-13T17:40:05.121Z,53.00
2017-10-13T17:42:32.579Z,53.10
2017-10-13T17:45:00.031Z,53.20
2017-10-13T17:47:27.505Z,53.20
2017-10-13T17:49:54.958Z,53.20
2017-10-13T17:52:22.418Z,53.30
2017-10-13T17:54:49.881Z,53.30
2017-10-13T17:57:17.323Z,53.40
2017-10-13T17:59:44.774Z,53.40
2017-10-13T18:02:12.235Z,53.40
2017-10-13T18:04:39.686Z,53.50
2017-10-13T18:07:07.143Z,53.50
2017-10-13T18:09:34.603Z,53.60
2017-10-13T18:12:02.059Z,53.60
2017-10-13T18:14:29.515Z,53.60
2017-10-13T18:16:56.978Z,53.60
2017-10-13T18:19:24.429Z,53.70
2017-10-13T18:21:52.987Z,53.70
2017-10-13T18:24:21.196Z,53.80
2017-10-13T18:26:48.653Z,53.80
2017-10-13T18:29:16.116Z,53.80
2017-10-13T18:31:43.563Z,53.80
2017-10-13T18:34:11.007Z,53.80
2017-10-13T18:36:38.573Z,53.80
2017-10-13T18:39:06.024Z,53.80
2017-10-13T18:41:33.488Z,53.90
2017-10-13T18:44:01.797Z,53.90
2017-10-13T18:46:29.933Z,54.00
2017-10-13T18:48:57.645Z,54.10
2017-10-13T18:51:25.157Z,54.00
2017-10-13T18:53:52.606Z,54.10
2017-10-13T18:56:20.909Z,54.20
2017-10-13T18:58:48.541Z,54.20
2017-10-13T19:01:16.381Z,54.20
2017-10-13T19:03:44.609Z,54.20
2017-10-13T19:06:12.544Z,54.20
2017-10-13T19:08:39.992Z,54.20
2017-10-13T19:11:08.210Z,54.40
2017-10-13T19:13:35.670Z,54.30
2017-10-13T19:16:03.118Z,54.30
2017-10-13T19:18:30.968Z,54.40
2017-10-13T19:20:58.424Z,54.30
2017-10-13T19:23:26.568Z,54.40
2017-10-13T19:25:55.078Z,54.50
2017-10-13T19:28:22.526Z,54.50
2017-10-13T19:30:49.987Z,54.50
2017-10-13T19:33:17.445Z,54.50
2017-10-13T19:35:44.939Z,54.50
2017-10-13T19:38:12.395Z,54.60
2017-10-13T19:40:39.850Z,54.50
2017-10-13T19:43:07.322Z,54.60
2017-10-13T19:45:34.785Z,54.60
2017-10-13T19:48:02.254Z,54.60
2017-10-13T19:50:29.735Z,54.60
2017-10-13T19:52:57.372Z,54.70
2017-10-13T19:55:25.598Z,54.70
2017-10-13T19:57:53.045Z,54.70
2017-10-13T20:00:20.506Z,54.70
2017-10-13T20:02:47.974Z,54.70
2017-10-13T20:05:15.429Z,54.80
2017-10-13T20:07:42.884Z,54.80
2017-10-13T20:10:10.339Z,54.80
2017-10-13T20:12:37.790Z,54.80
2017-10-13T20:15:05.252Z,54.80
2017-10-13T20:17:32.721Z,54.80
2017-10-13T20:20:00.169Z,54.80
2017-10-13T20:22:27.618Z,54.90
2017-10-13T20:24:55.087Z,54.90
2017-10-13T20:27:22.555Z,55.60
2017-10-13T20:29:50.011Z,55.00
2017-10-13T20:32:17.461Z,55.00
2017-10-13T20:34:44.906Z,55.00
2017-10-13T20:37:12.363Z,55.00
2017-10-13T20:39:39.810Z,55.00
2017-10-13T20:42:07.271Z,55.00
2017-10-13T20:44:34.746Z,55.00
2017-10-13T20:47:02.206Z,55.10
2017-10-13T20:49:29.653Z,55.10
2017-10-13T20:51:57.138Z,55.10
2017-10-13T20:54:24.584Z,55.00
2017-10-13T20:56:52.029Z,55.10
2017-10-13T20:59:19.478Z,55.00
2017-10-13T21:01:46.953Z,55.10
2017-10-13T21:04:14.394Z,55.20
2017-10-13T21:06:41.855Z,55.20
2017-10-13T21:09:09.305Z,55.20
2017-10-13T21:11:36.776Z,55.30
2017-10-13T21:14:04.197Z,55.30
2017-10-13T21:16:31.666Z,55.30
2017-10-13T21:18:59.113Z,55.20
2017-10-13T21:21:26.589Z,55.20
2017-10-13T21:23:54.042Z,55.20
2017-10-13T21:26:21.492Z,55.30
2017-10-13T21:28:48.941Z,55.30
2017-10-13T21:31:16.446Z,55.30
2017-10-13T21:33:43.894Z,55.30
2017-10-13T21:36:11.337Z,55.40
2017-10-13T21:38:38.793Z,55.40
2017-10-13T21:41:06.247Z,55.50
2017-10-13T21:43:33.705Z,55.40
2017-10-13T21:46:01.155Z,55.50
2017-10-13T21:48:28.658Z,55.50
2017-10-13T21:50:56.093Z,55.40
2017-10-13T21:53:23.541Z,55.50
2017-10-13T21:55:50.986Z,55.50
2017-10-13T21:58:18.458Z,55.40
2017-10-13T22:00:45.903Z,55.50
2017-10-13T22:03:13.366Z,55.50
2017-10-13T22:05:40.811Z,55.50
2017-10-13T22:08:08.277Z,55.60
2017-10-13T22:10:35.729Z,55.50
2017-10-13T22:13:03.178Z,55.60
2017-10-13T22:15:30.639Z,55.50
2017-10-13T22:17:58.093Z,55.60
2017-10-13T22:20:25.558Z,55.50
2017-10-13T22:22:53.014Z,55.60
2017-10-13T22:25:20.466Z,55.60
2017-10-13T22:27:47.914Z,55.60
2017-10-13T22:30:15.382Z,55.60
2017-10-13T22:32:42.830Z,55.60
2017-10-13T22:35:10.299Z,55.60
2017-10-13T22:37:37.734Z,55.60
2017-10-13T22:40:05.239Z,55.70
2017-10-13T22:42:32.686Z,55.70
2017-10-13T22:45:00.133Z,55.70
2017-10-13T22:47:27.594Z,55.70
2017-10-13T22:49:55.066Z,55.70
2017-10-13T22:52:22.506Z,55.80
2017-10-13T22:54:49.961Z,55.80
2017-10-13T22:57:17.414Z,55.80
2017-10-13T22:59:44.891Z,55.70
2017-10-13T23:02:12.353Z,55.70
2017-10-13T23:04:39.830Z,55.80
2017-10-13T23:07:07.278Z,55.70
2017-10-13T23:09:34.721Z,55.80
2017-10-13T23:12:02.190Z,55.80
2017-10-13T23:14:29.653Z,55.80
2017-10-13T23:16:57.101Z,55.80
2017-10-13T23:19:24.552Z,55.70
2017-10-13T23:21:52.034Z,55.80
2017-10-13T23:24:19.486Z,55.80
2017-10-13T23:26:46.945Z,55.90
2017-10-13T23:29:14.395Z,55.90
2017-10-13T23:31:41.856Z,55.80
2017-10-13T23:34:09.314Z,55.90
2017-10-13T23:36:36.790Z,55.90
2017-10-13T23:39:05.019Z,55.90
2017-10-13T23:41:32.462Z,55.80
2017-10-13T23:43:59.922Z,55.90
2017-10-13T23:46:27.377Z,55.90
2017-10-13T23:48:54.838Z,55.90
2017-10-13T23:51:22.295Z,55.90
2017-10-13T23:53:49.762Z,55.90
2017-10-13T23:56:17.214Z,56.00
2017-10-13T23:58:44.673Z,56.00
